createdAt,value
2017-07-08T00:00:06.735Z,0
2017-07-08T00:01:06.225Z,0
2017-07-08T00:02:06.408Z,0
2017-07-08T00:03:06.088Z,0
2017-07-08T00:04:06.069Z,0
2017-07-08T00:05:06.390Z,0
2017-07-08T00:06:06.063Z,0
2017-07-08T00:07:06.732Z,0
2017-07-08T00:08:06.059Z,0
2017-07-08T00:09:06.388Z,0
2017-07-08T00:10:06.723Z,0
2017-07-08T00:11:06.383Z,0
2017-07-08T00:12:06.530Z,0
2017-07-08T00:13:06.719Z,0
2017-07-08T00:14:06.396Z,0
2017-07-08T00:15:06.048Z,0
2017-07-08T00:16:06.376Z,0
2017-07-08T00:17:06.047Z,0
2017-07-08T00:18:06.881Z,0
2017-07-08T00:19:06.379Z,0
2017-07-08T00:20:06.367Z,0
2017-07-08T00:21:06.694Z,0
2017-07-08T00:22:06.361Z,0
2017-07-08T00:23:06.701Z,0
2017-07-08T00:24:06.694Z,0
2017-07-08T00:25:06.699Z,0
2017-07-08T00:26:06.081Z,0
2017-07-08T00:27:06.363Z,0
2017-07-08T00:28:06.697Z,0
2017-07-08T00:29:06.499Z,0
2017-07-08T00:30:06.363Z,0
2017-07-08T00:31:06.548Z,0
2017-07-08T00:32:06.341Z,0
2017-07-08T00:33:06.341Z,0
2017-07-08T00:34:06.663Z,0
2017-07-08T00:35:06.019Z,0
2017-07-08T00:36:06.025Z,0
2017-07-08T00:37:06.665Z,0
2017-07-08T00:38:06.353Z,0
2017-07-08T00:39:06.328Z,0
2017-07-08T00:40:06.841Z,0
2017-07-08T00:41:06.342Z,0
2017-07-08T00:42:06.346Z,0
2017-07-08T00:43:07.013Z,0
2017-07-08T00:44:07.019Z,0
2017-07-08T00:45:06.663Z,0
2017-07-08T00:46:06.660Z,0
2017-07-08T00:47:06.643Z,0
2017-07-08T00:48:05.993Z,0
2017-07-08T00:49:06.000Z,0
2017-07-08T00:50:06.309Z,0
2017-07-08T00:51:06.789Z,0
2017-07-08T00:52:06.639Z,0
2017-07-08T00:53:06.304Z,0
2017-07-08T00:54:05.970Z,0
2017-07-08T00:55:06.297Z,0
2017-07-08T00:56:05.967Z,0
2017-07-08T00:57:06.298Z,0
2017-07-08T00:58:06.624Z,0
2017-07-08T00:59:05.968Z,0
2017-07-08T01:00:06.629Z,0
2017-07-08T01:01:06.635Z,0
2017-07-08T01:02:06.636Z,0
2017-07-08T01:03:06.301Z,0
2017-07-08T01:04:06.301Z,0
2017-07-08T01:05:06.277Z,0
2017-07-08T01:06:06.935Z,0
2017-07-08T01:07:06.757Z,0
2017-07-08T01:08:06.271Z,0
2017-07-08T01:09:06.598Z,0
2017-07-08T01:10:06.614Z,0
2017-07-08T01:11:06.266Z,0
2017-07-08T01:12:06.593Z,0
2017-07-08T01:13:06.584Z,0
2017-07-08T01:14:06.259Z,0
2017-07-08T01:15:06.297Z,0
2017-07-08T01:16:06.600Z,0
2017-07-08T01:17:05.928Z,0
2017-07-08T01:18:06.400Z,0
2017-07-08T01:19:06.249Z,0
2017-07-08T01:20:05.932Z,0
2017-07-08T01:21:06.245Z,0
2017-07-08T01:22:06.567Z,0
2017-07-08T01:23:06.263Z,0
2017-07-08T01:24:06.893Z,0
2017-07-08T01:25:06.235Z,0
2017-07-08T01:26:06.230Z,0
2017-07-08T01:27:06.243Z,0
2017-07-08T01:28:06.250Z,0
2017-07-08T01:29:06.766Z,0
2017-07-08T01:30:06.244Z,0
2017-07-08T01:31:06.223Z,0
2017-07-08T01:32:06.546Z,0
2017-07-08T01:33:05.887Z,0
2017-07-08T01:34:06.538Z,0
2017-07-08T01:35:06.224Z,0
2017-07-08T01:36:06.205Z,0
2017-07-08T01:37:06.233Z,0
2017-07-08T01:38:06.866Z,0
2017-07-08T01:39:06.532Z,0
2017-07-08T01:40:06.032Z,0
2017-07-08T01:41:06.196Z,0
2017-07-08T01:42:06.528Z,0
2017-07-08T01:43:06.546Z,0
2017-07-08T01:44:05.861Z,0
2017-07-08T01:45:06.837Z,0
2017-07-08T01:46:06.879Z,0
2017-07-08T01:47:05.872Z,0
2017-07-08T01:48:06.508Z,0
2017-07-08T01:49:05.847Z,0
2017-07-08T01:50:06.834Z,0
2017-07-08T01:51:06.653Z,0
2017-07-08T01:52:06.505Z,0
2017-07-08T01:53:05.903Z,0
2017-07-08T01:54:06.515Z,0
2017-07-08T01:55:06.844Z,0
2017-07-08T01:56:06.486Z,0
2017-07-08T01:57:06.520Z,0
2017-07-08T01:58:06.806Z,0
2017-07-08T01:59:06.478Z,0
2017-07-08T02:00:06.480Z,0
2017-07-08T02:01:06.144Z,0
2017-07-08T02:02:06.299Z,0
2017-07-08T02:03:06.468Z,0
2017-07-08T02:04:06.205Z,0
2017-07-08T02:05:05.807Z,0
2017-07-08T02:06:05.805Z,0
2017-07-08T02:07:05.809Z,0
2017-07-08T02:08:06.127Z,0
2017-07-08T02:09:05.799Z,0
2017-07-08T02:10:07.120Z,0
2017-07-08T02:11:05.789Z,0
2017-07-08T02:12:05.789Z,0
2017-07-08T02:13:05.936Z,0
2017-07-08T02:14:06.151Z,0
2017-07-08T02:15:06.762Z,0
2017-07-08T02:16:05.780Z,0
2017-07-08T02:17:05.775Z,0
2017-07-08T02:18:06.118Z,0
2017-07-08T02:19:06.430Z,0
2017-07-08T02:20:06.437Z,0
2017-07-08T02:21:06.423Z,0
2017-07-08T02:22:06.107Z,0
2017-07-08T02:23:06.429Z,0
2017-07-08T02:24:06.236Z,0
2017-07-08T02:25:06.745Z,0
2017-07-08T02:26:06.095Z,0
2017-07-08T02:27:06.100Z,0
2017-07-08T02:28:05.748Z,0
2017-07-08T02:29:05.746Z,0
2017-07-08T02:30:06.179Z,0
2017-07-08T02:31:06.725Z,0
2017-07-08T02:32:06.404Z,0
2017-07-08T02:33:06.066Z,0
2017-07-08T02:34:06.074Z,0
2017-07-08T02:35:06.231Z,0
2017-07-08T02:36:06.077Z,0
2017-07-08T02:37:05.728Z,0
2017-07-08T02:38:06.053Z,0
2017-07-08T02:39:06.057Z,0
2017-07-08T02:40:05.718Z,0
2017-07-08T02:41:06.105Z,0
2017-07-08T02:42:05.723Z,0
2017-07-08T02:43:06.046Z,0
2017-07-08T02:44:06.062Z,0
2017-07-08T02:45:06.048Z,0
2017-07-08T02:46:06.036Z,0
2017-07-08T02:47:05.738Z,0
2017-07-08T02:48:06.367Z,0
2017-07-08T02:49:05.701Z,0
2017-07-08T02:50:06.034Z,0
2017-07-08T02:51:06.062Z,0
2017-07-08T02:52:06.178Z,0
2017-07-08T02:53:06.019Z,0
2017-07-08T02:54:06.365Z,0
2017-07-08T02:55:06.015Z,0
2017-07-08T02:56:05.681Z,0
2017-07-08T02:57:05.681Z,0
2017-07-08T02:58:05.681Z,0
2017-07-08T02:59:06.349Z,0
2017-07-08T03:00:06.329Z,0
2017-07-08T03:01:05.678Z,0
2017-07-08T03:02:06.341Z,0
2017-07-08T03:03:05.996Z,0
2017-07-08T03:04:06.324Z,5
2017-07-08T03:05:06.646Z,5
2017-07-08T03:06:05.991Z,5
2017-07-08T03:07:06.318Z,5
2017-07-08T03:08:06.134Z,5
2017-07-08T03:09:05.677Z,5
2017-07-08T03:10:05.681Z,5
2017-07-08T03:11:05.691Z,5
2017-07-08T03:12:06.322Z,5
2017-07-08T03:13:05.640Z,10
2017-07-08T03:14:06.391Z,10
2017-07-08T03:15:05.635Z,10
2017-07-08T03:16:06.304Z,10
2017-07-08T03:17:05.999Z,10
2017-07-08T03:18:06.540Z,10
2017-07-08T03:19:05.955Z,15
2017-07-08T03:20:05.953Z,15
2017-07-08T03:21:05.978Z,15
2017-07-08T03:22:06.673Z,20
2017-07-08T03:23:05.614Z,20
2017-07-08T03:24:05.633Z,20
2017-07-08T03:25:06.416Z,20
2017-07-08T03:26:05.631Z,20
2017-07-08T03:27:06.262Z,20
2017-07-08T03:28:05.600Z,20
2017-07-08T03:29:06.281Z,20
2017-07-08T03:30:06.263Z,20
2017-07-08T03:31:05.924Z,20
2017-07-08T03:32:05.922Z,20
2017-07-08T03:33:05.918Z,20
2017-07-08T03:34:06.300Z,25
2017-07-08T03:35:05.602Z,25
2017-07-08T03:36:06.067Z,25
2017-07-08T03:37:06.901Z,30
2017-07-08T03:38:06.239Z,30
2017-07-08T03:39:05.920Z,30
2017-07-08T03:40:06.557Z,30
2017-07-08T03:41:05.571Z,30
2017-07-08T03:42:06.223Z,30
2017-07-08T03:43:06.560Z,35
2017-07-08T03:44:06.223Z,35
2017-07-08T03:45:05.888Z,40
2017-07-08T03:46:05.560Z,40
2017-07-08T03:47:05.572Z,40
2017-07-08T03:48:05.887Z,40
2017-07-08T03:49:05.894Z,40
2017-07-08T03:50:05.878Z,45
2017-07-08T03:51:05.551Z,40
2017-07-08T03:52:06.020Z,40
2017-07-08T03:53:06.198Z,45
2017-07-08T03:54:05.560Z,45
2017-07-08T03:55:05.885Z,45
2017-07-08T03:56:05.875Z,50
2017-07-08T03:57:05.863Z,55
2017-07-08T03:58:05.875Z,55
2017-07-08T03:59:06.193Z,55
2017-07-08T04:00:05.530Z,55
2017-07-08T04:01:06.183Z,55
2017-07-08T04:02:05.856Z,55
2017-07-08T04:03:06.665Z,60
2017-07-08T04:04:06.209Z,60
2017-07-08T04:05:06.180Z,60
2017-07-08T04:06:05.870Z,60
2017-07-08T04:07:06.848Z,60
2017-07-08T04:08:05.869Z,65
2017-07-08T04:09:06.166Z,65
2017-07-08T04:10:06.496Z,60
2017-07-08T04:11:06.160Z,60
2017-07-08T04:12:06.182Z,60
2017-07-08T04:13:05.510Z,65
2017-07-08T04:14:05.830Z,65
2017-07-08T04:15:05.824Z,65
2017-07-08T04:16:06.152Z,65
2017-07-08T04:17:05.877Z,65
2017-07-08T04:18:05.499Z,65
2017-07-08T04:19:05.817Z,65
2017-07-08T04:20:05.989Z,70
2017-07-08T04:21:06.472Z,70
2017-07-08T04:22:05.504Z,75
2017-07-08T04:23:05.482Z,75
2017-07-08T04:24:06.464Z,75
2017-07-08T04:25:05.478Z,75
2017-07-08T04:26:06.150Z,75
2017-07-08T04:27:06.161Z,80
2017-07-08T04:28:06.132Z,85
2017-07-08T04:29:06.130Z,90
2017-07-08T04:30:06.173Z,95
2017-07-08T04:31:05.514Z,100
2017-07-08T04:32:06.527Z,105
2017-07-08T04:33:06.145Z,105
2017-07-08T04:34:06.150Z,105
2017-07-08T04:35:05.791Z,110
2017-07-08T04:36:05.787Z,105
2017-07-08T04:37:06.114Z,105
2017-07-08T04:38:05.458Z,105
2017-07-08T04:39:05.788Z,105
2017-07-08T04:40:06.126Z,115
2017-07-08T04:41:05.795Z,130
2017-07-08T04:42:06.260Z,130
2017-07-08T04:43:06.431Z,140
2017-07-08T04:44:06.094Z,145
2017-07-08T04:45:05.450Z,140
2017-07-08T04:46:06.432Z,135
2017-07-08T04:47:05.781Z,140
2017-07-08T04:48:05.772Z,155
2017-07-08T04:49:06.098Z,150
2017-07-08T04:50:05.441Z,130
2017-07-08T04:51:05.441Z,125
2017-07-08T04:52:05.438Z,120
2017-07-08T04:53:06.547Z,120
2017-07-08T04:54:05.456Z,145
2017-07-08T04:55:05.434Z,160
2017-07-08T04:56:05.766Z,165
2017-07-08T04:57:05.769Z,160
2017-07-08T04:58:05.475Z,165
2017-07-08T04:59:05.758Z,165
2017-07-08T05:00:05.438Z,175
2017-07-08T05:01:05.755Z,190
2017-07-08T05:02:06.418Z,205
2017-07-08T05:03:05.776Z,225
2017-07-08T05:04:06.074Z,235
2017-07-08T05:05:06.072Z,235
2017-07-08T05:06:06.437Z,240
2017-07-08T05:07:06.723Z,225
2017-07-08T05:08:06.069Z,195
2017-07-08T05:09:05.565Z,160
2017-07-08T05:10:06.121Z,140
2017-07-08T05:11:05.435Z,130
2017-07-08T05:12:06.075Z,150
2017-07-08T05:13:06.067Z,155
2017-07-08T05:14:05.743Z,165
2017-07-08T05:15:05.736Z,170
2017-07-08T05:16:05.426Z,165
2017-07-08T05:17:05.428Z,165
2017-07-08T05:18:05.743Z,165
2017-07-08T05:19:05.732Z,170
2017-07-08T05:20:06.070Z,170
2017-07-08T05:21:06.385Z,175
2017-07-08T05:22:05.727Z,175
2017-07-08T05:23:06.056Z,180
2017-07-08T05:24:05.724Z,180
2017-07-08T05:25:05.728Z,185
2017-07-08T05:26:06.059Z,185
2017-07-08T05:27:05.741Z,190
2017-07-08T05:28:05.742Z,190
2017-07-08T05:29:06.048Z,195
2017-07-08T05:30:05.744Z,200
2017-07-08T05:31:06.856Z,200
2017-07-08T05:32:05.614Z,200
2017-07-08T05:33:05.391Z,205
2017-07-08T05:34:06.376Z,205
2017-07-08T05:35:05.388Z,200
2017-07-08T05:36:06.699Z,195
2017-07-08T05:37:05.719Z,205
2017-07-08T05:38:05.394Z,215
2017-07-08T05:39:06.065Z,205
2017-07-08T05:40:05.731Z,215
2017-07-08T05:41:05.722Z,215
2017-07-08T05:42:05.385Z,200
2017-07-08T05:43:05.385Z,195
2017-07-08T05:44:05.712Z,195
2017-07-08T05:45:06.066Z,195
2017-07-08T05:46:05.399Z,200
2017-07-08T05:47:06.051Z,195
2017-07-08T05:48:05.731Z,200
2017-07-08T05:49:05.709Z,200
2017-07-08T05:50:06.034Z,185
2017-07-08T05:51:05.746Z,200
2017-07-08T05:52:05.991Z,205
2017-07-08T05:53:06.048Z,210
2017-07-08T05:54:05.394Z,210
2017-07-08T05:55:05.766Z,215
2017-07-08T05:56:05.729Z,220
2017-07-08T05:57:05.710Z,225
2017-07-08T05:58:05.379Z,225
2017-07-08T05:59:05.715Z,220
2017-07-08T06:00:05.705Z,220
2017-07-08T06:01:05.708Z,220
2017-07-08T06:02:05.704Z,220
2017-07-08T06:03:06.057Z,220
2017-07-08T06:04:06.035Z,220
2017-07-08T06:05:05.935Z,215
2017-07-08T06:06:05.374Z,215
2017-07-08T06:07:06.069Z,215
2017-07-08T06:08:05.702Z,210
2017-07-08T06:09:06.375Z,230
2017-07-08T06:10:05.719Z,235
2017-07-08T06:11:06.091Z,240
2017-07-08T06:12:06.074Z,230
2017-07-08T06:13:05.378Z,235
2017-07-08T06:14:05.405Z,235
2017-07-08T06:15:05.705Z,240
2017-07-08T06:16:05.737Z,230
2017-07-08T06:17:06.068Z,220
2017-07-08T06:18:06.068Z,235
2017-07-08T06:19:05.710Z,235
2017-07-08T06:20:05.720Z,230
2017-07-08T06:21:05.374Z,205
2017-07-08T06:22:05.383Z,230
2017-07-08T06:23:05.376Z,240
2017-07-08T06:24:05.380Z,235
2017-07-08T06:25:05.379Z,230
2017-07-08T06:26:06.385Z,235
2017-07-08T06:27:05.724Z,225
2017-07-08T06:28:05.726Z,225
2017-07-08T06:29:06.076Z,230
2017-07-08T06:30:05.725Z,245
2017-07-08T06:31:05.705Z,230
2017-07-08T06:32:05.757Z,260
2017-07-08T06:33:06.042Z,255
2017-07-08T06:34:05.759Z,255
2017-07-08T06:35:05.382Z,250
2017-07-08T06:36:05.742Z,250
2017-07-08T06:37:06.098Z,245
2017-07-08T06:38:05.715Z,270
2017-07-08T06:39:05.713Z,300
2017-07-08T06:40:05.709Z,325
2017-07-08T06:41:05.711Z,355
2017-07-08T06:42:05.744Z,370
2017-07-08T06:43:05.731Z,410
2017-07-08T06:44:05.710Z,450
2017-07-08T06:45:05.735Z,420
2017-07-08T06:46:05.721Z,490
2017-07-08T06:47:06.060Z,420
2017-07-08T06:48:05.383Z,410
2017-07-08T06:49:05.711Z,530
2017-07-08T06:50:06.062Z,535
2017-07-08T06:51:05.722Z,590
2017-07-08T06:52:05.716Z,635
2017-07-08T06:53:05.714Z,725
2017-07-08T06:54:06.043Z,680
2017-07-08T06:55:05.392Z,650
2017-07-08T06:56:05.724Z,640
2017-07-08T06:57:05.729Z,615
2017-07-08T06:58:06.058Z,620
2017-07-08T06:59:05.733Z,595
2017-07-08T07:00:06.072Z,595
2017-07-08T07:01:05.745Z,595
2017-07-08T07:02:05.424Z,585
2017-07-08T07:03:06.090Z,595
2017-07-08T07:04:05.757Z,595
2017-07-08T07:05:05.762Z,570
2017-07-08T07:06:05.437Z,590
2017-07-08T07:07:05.766Z,590
2017-07-08T07:08:05.794Z,660
2017-07-08T07:09:06.104Z,680
2017-07-08T07:10:05.781Z,640
2017-07-08T07:11:05.805Z,570
2017-07-08T07:12:05.813Z,575
2017-07-08T07:13:05.817Z,590
2017-07-08T07:14:06.128Z,630
2017-07-08T07:15:05.810Z,620
2017-07-08T07:16:05.486Z,640
2017-07-08T07:17:05.820Z,650
2017-07-08T07:18:05.501Z,670
2017-07-08T07:19:06.846Z,695
2017-07-08T07:20:05.839Z,735
2017-07-08T07:21:05.846Z,620
2017-07-08T07:22:06.184Z,550
2017-07-08T07:23:06.186Z,525
2017-07-08T07:24:06.196Z,505
2017-07-08T07:25:05.902Z,465
2017-07-08T07:26:05.912Z,475
2017-07-08T07:27:06.235Z,490
2017-07-08T07:28:06.281Z,545
2017-07-08T07:29:06.230Z,675
2017-07-08T07:30:06.241Z,770
2017-07-08T07:31:06.282Z,880
2017-07-08T07:32:05.612Z,900
2017-07-08T07:33:06.271Z,920
2017-07-08T07:34:06.318Z,850
2017-07-08T07:35:06.325Z,785
2017-07-08T07:36:05.964Z,655
2017-07-08T07:37:05.968Z,630
2017-07-08T07:38:12.656Z,640
2017-07-08T07:39:06.303Z,665
2017-07-08T07:40:06.319Z,715
2017-07-08T07:41:05.988Z,600
2017-07-08T07:42:06.316Z,585
2017-07-08T07:43:05.671Z,565
2017-07-08T07:44:06.016Z,565
2017-07-08T07:45:06.376Z,560
2017-07-08T07:46:06.037Z,550
2017-07-08T07:47:05.702Z,540
2017-07-08T07:48:05.704Z,520
2017-07-08T07:49:05.710Z,505
2017-07-08T07:50:06.741Z,485
2017-07-08T07:51:06.707Z,490
2017-07-08T07:52:06.060Z,515
2017-07-08T07:53:06.381Z,540
2017-07-08T07:54:06.088Z,535
2017-07-08T07:55:06.093Z,525
2017-07-08T07:56:06.089Z,500
2017-07-08T07:57:06.416Z,480
2017-07-08T07:58:06.106Z,480
2017-07-08T07:59:06.104Z,470
2017-07-08T08:00:06.436Z,470
2017-07-08T08:01:06.751Z,465
2017-07-08T08:02:06.097Z,465
2017-07-08T08:03:06.102Z,470
2017-07-08T08:04:06.107Z,470
2017-07-08T08:05:06.129Z,475
2017-07-08T08:06:06.438Z,505
2017-07-08T08:07:05.791Z,550
2017-07-08T08:08:05.791Z,590
2017-07-08T08:09:05.802Z,550
2017-07-08T08:10:06.468Z,565
2017-07-08T08:11:06.472Z,490
2017-07-08T08:12:06.818Z,445
2017-07-08T08:13:06.141Z,435
2017-07-08T08:14:06.140Z,435
2017-07-08T08:15:06.145Z,435
2017-07-08T08:16:06.175Z,515
2017-07-08T08:17:06.488Z,565
2017-07-08T08:18:05.841Z,560
2017-07-08T08:19:06.488Z,590
2017-07-08T08:20:06.545Z,615
2017-07-08T08:21:06.836Z,585
2017-07-08T08:22:06.501Z,610
2017-07-08T08:23:06.501Z,620
2017-07-08T08:24:06.203Z,615
2017-07-08T08:25:06.218Z,620
2017-07-08T08:26:06.191Z,610
2017-07-08T08:27:06.210Z,605
2017-07-08T08:28:05.875Z,590
2017-07-08T08:29:06.543Z,625
2017-07-08T08:30:05.896Z,640
2017-07-08T08:31:06.225Z,565
2017-07-08T08:32:06.215Z,555
2017-07-08T08:33:05.902Z,535
2017-07-08T08:34:06.272Z,520
2017-07-08T08:35:06.564Z,530
2017-07-08T08:36:06.569Z,535
2017-07-08T08:37:06.598Z,505
2017-07-08T08:38:06.577Z,525
2017-07-08T08:39:06.265Z,575
2017-07-08T08:40:06.594Z,625
2017-07-08T08:41:06.258Z,640
2017-07-08T08:42:06.625Z,615
2017-07-08T08:43:05.958Z,630
2017-07-08T08:44:06.603Z,615
2017-07-08T08:45:06.275Z,615
2017-07-08T08:46:06.618Z,620
2017-07-08T08:47:05.967Z,645
2017-07-08T08:48:06.969Z,605
2017-07-08T08:49:06.630Z,530
2017-07-08T08:50:06.309Z,435
2017-07-08T08:51:06.302Z,370
2017-07-08T08:52:06.630Z,320
2017-07-08T08:53:06.308Z,305
2017-07-08T08:54:06.968Z,365
2017-07-08T08:55:06.016Z,465
2017-07-08T08:56:06.924Z,580
2017-07-08T08:57:06.333Z,595
2017-07-08T08:58:06.724Z,540
2017-07-08T08:59:06.335Z,515
2017-07-08T09:00:06.674Z,485
2017-07-08T09:01:06.346Z,460
2017-07-08T09:02:06.351Z,445
2017-07-08T09:03:07.009Z,410
2017-07-08T09:04:07.015Z,440
2017-07-08T09:05:06.359Z,505
2017-07-08T09:06:06.695Z,535
2017-07-08T09:07:06.045Z,495
2017-07-08T09:08:06.708Z,515
2017-07-08T09:09:06.394Z,580
2017-07-08T09:10:06.379Z,630
2017-07-08T09:11:06.059Z,625
2017-07-08T09:12:06.759Z,635
2017-07-08T09:13:06.751Z,585
2017-07-08T09:14:06.400Z,525
2017-07-08T09:15:06.422Z,570
2017-07-08T09:16:06.756Z,615
2017-07-08T09:17:06.745Z,650
2017-07-08T09:18:06.102Z,680
2017-07-08T09:19:06.107Z,655
2017-07-08T09:20:06.431Z,625
2017-07-08T09:21:06.771Z,585
2017-07-08T09:22:06.431Z,525
2017-07-08T09:23:06.763Z,495
2017-07-08T09:24:06.438Z,555
2017-07-08T09:25:06.450Z,580
2017-07-08T09:26:06.787Z,580
2017-07-08T09:27:06.141Z,620
2017-07-08T09:28:06.454Z,670
2017-07-08T09:29:06.467Z,665
2017-07-08T09:30:06.463Z,615
2017-07-08T09:31:06.489Z,560
2017-07-08T09:32:06.812Z,515
2017-07-08T09:33:07.136Z,545
2017-07-08T09:34:06.477Z,610
2017-07-08T09:35:06.846Z,605
2017-07-08T09:36:06.159Z,580
2017-07-08T09:37:06.552Z,515
2017-07-08T09:38:06.495Z,425
2017-07-08T09:39:06.170Z,400
2017-07-08T09:40:06.502Z,410
2017-07-08T09:41:06.831Z,415
2017-07-08T09:42:06.834Z,485
2017-07-08T09:43:07.172Z,615
2017-07-08T09:44:06.544Z,655
2017-07-08T09:45:06.212Z,630
2017-07-08T09:46:06.544Z,475
2017-07-08T09:47:06.525Z,365
2017-07-08T09:48:07.215Z,325
2017-07-08T09:49:06.536Z,325
2017-07-08T09:50:06.571Z,385
2017-07-08T09:51:06.550Z,435
2017-07-08T09:52:06.223Z,470
2017-07-08T09:53:06.891Z,530
2017-07-08T09:54:06.559Z,525
2017-07-08T09:55:06.564Z,460
2017-07-08T09:56:06.558Z,445
2017-07-08T09:57:06.893Z,475
2017-07-08T09:58:06.575Z,510
2017-07-08T09:59:08.204Z,555
2017-07-08T10:00:06.268Z,560
2017-07-08T10:01:06.601Z,515
2017-07-08T10:02:06.600Z,425
2017-07-08T10:03:06.586Z,320
2017-07-08T10:04:06.934Z,295
2017-07-08T10:05:06.916Z,350
2017-07-08T10:06:06.602Z,455
2017-07-08T10:07:06.274Z,585
2017-07-08T10:08:06.282Z,605
2017-07-08T10:09:07.274Z,565
2017-07-08T10:10:06.953Z,555
2017-07-08T10:11:06.963Z,525
2017-07-08T10:12:06.949Z,515
2017-07-08T10:13:06.305Z,520
2017-07-08T10:14:06.316Z,530
2017-07-08T10:15:06.631Z,550
2017-07-08T10:16:06.330Z,570
2017-07-08T10:17:06.982Z,600
2017-07-08T10:18:06.967Z,600
2017-07-08T10:19:06.317Z,570
2017-07-08T10:20:06.996Z,550
2017-07-08T10:21:06.653Z,570
2017-07-08T10:22:06.327Z,555
2017-07-08T10:23:06.664Z,545
2017-07-08T10:24:06.695Z,540
2017-07-08T10:25:06.994Z,545
2017-07-08T10:26:06.356Z,565
2017-07-08T10:27:07.007Z,560
2017-07-08T10:28:06.697Z,605
2017-07-08T10:29:06.697Z,620
2017-07-08T10:30:07.345Z,565
2017-07-08T10:31:07.353Z,470
2017-07-08T10:32:06.371Z,380
2017-07-08T10:33:07.029Z,295
2017-07-08T10:34:07.033Z,225
2017-07-08T10:35:06.708Z,215
2017-07-08T10:36:06.732Z,230
2017-07-08T10:37:07.051Z,210
2017-07-08T10:38:07.082Z,160
2017-07-08T10:39:06.736Z,120
2017-07-08T10:40:06.739Z,95
2017-07-08T10:41:06.745Z,90
2017-07-08T10:42:06.738Z,100
2017-07-08T10:43:07.408Z,120
2017-07-08T10:44:07.402Z,170
2017-07-08T10:45:07.107Z,225
2017-07-08T10:46:06.438Z,285
2017-07-08T10:47:06.452Z,300
2017-07-08T10:48:07.126Z,290
2017-07-08T10:49:06.463Z,260
2017-07-08T10:50:06.792Z,230
2017-07-08T10:51:07.101Z,210
2017-07-08T10:52:07.441Z,175
2017-07-08T10:53:06.800Z,140
2017-07-08T10:54:07.115Z,110
2017-07-08T10:55:06.812Z,100
2017-07-08T10:56:06.469Z,90
2017-07-08T10:57:06.474Z,105
2017-07-08T10:58:06.828Z,130
2017-07-08T10:59:06.812Z,170
2017-07-08T11:00:07.134Z,230
2017-07-08T11:01:06.477Z,320
2017-07-08T11:02:07.133Z,450
2017-07-08T11:03:07.140Z,590
2017-07-08T11:04:07.134Z,640
2017-07-08T11:05:06.484Z,645
2017-07-08T11:06:06.814Z,650
2017-07-08T11:07:07.159Z,615
2017-07-08T11:08:06.817Z,565
2017-07-08T11:09:06.487Z,545
2017-07-08T11:10:06.500Z,525
2017-07-08T11:11:06.856Z,520
2017-07-08T11:12:06.842Z,515
2017-07-08T11:13:06.822Z,495
2017-07-08T11:14:07.486Z,455
2017-07-08T11:15:06.831Z,435
2017-07-08T11:16:07.510Z,390
2017-07-08T11:17:07.160Z,345
2017-07-08T11:18:06.834Z,300
2017-07-08T11:19:07.500Z,260
2017-07-08T11:20:07.185Z,270
2017-07-08T11:21:06.511Z,310
2017-07-08T11:22:06.532Z,360
2017-07-08T11:23:06.514Z,390
2017-07-08T11:24:06.855Z,370
2017-07-08T11:25:06.515Z,375
2017-07-08T11:26:06.522Z,385
2017-07-08T11:27:06.521Z,370
2017-07-08T11:28:06.527Z,355
2017-07-08T11:29:06.523Z,345
2017-07-08T11:30:07.176Z,345
2017-07-08T11:31:07.185Z,355
2017-07-08T11:32:07.884Z,390
2017-07-08T11:33:06.858Z,435
2017-07-08T11:34:07.208Z,495
2017-07-08T11:35:07.205Z,505
2017-07-08T11:36:06.894Z,510
2017-07-08T11:37:06.544Z,515
2017-07-08T11:38:07.199Z,515
2017-07-08T11:39:06.874Z,510
2017-07-08T11:40:07.548Z,485
2017-07-08T11:41:07.202Z,470
2017-07-08T11:42:06.955Z,460
2017-07-08T11:43:07.221Z,440
2017-07-08T11:44:06.885Z,430
2017-07-08T11:45:07.208Z,435
2017-07-08T11:46:07.555Z,485
2017-07-08T11:47:06.892Z,520
2017-07-08T11:48:07.231Z,535
2017-07-08T11:49:07.259Z,535
2017-07-08T11:50:07.231Z,530
2017-07-08T11:51:06.942Z,545
2017-07-08T11:52:06.578Z,555
2017-07-08T11:53:06.909Z,570
2017-07-08T11:54:06.930Z,560
2017-07-08T11:55:06.626Z,585
2017-07-08T11:56:06.597Z,575
2017-07-08T11:57:06.927Z,585
2017-07-08T11:58:06.608Z,560
2017-07-08T11:59:06.598Z,545
2017-07-08T12:00:06.932Z,495
2017-07-08T12:01:06.933Z,460
2017-07-08T12:02:06.940Z,445
2017-07-08T12:03:06.969Z,415
2017-07-08T12:04:07.274Z,385
2017-07-08T12:05:06.969Z,370
2017-07-08T12:06:06.981Z,390
2017-07-08T12:07:07.318Z,375
2017-07-08T12:08:06.652Z,330
2017-07-08T12:09:07.323Z,305
2017-07-08T12:10:07.291Z,240
2017-07-08T12:11:06.663Z,215
2017-07-08T12:12:06.661Z,195
2017-07-08T12:13:07.014Z,190
2017-07-08T12:14:06.657Z,200
2017-07-08T12:15:06.997Z,245
2017-07-08T12:16:07.316Z,320
2017-07-08T12:17:07.320Z,415
2017-07-08T12:18:06.671Z,385
2017-07-08T12:19:07.325Z,355
2017-07-08T12:20:07.344Z,330
2017-07-08T12:21:07.031Z,320
2017-07-08T12:22:07.665Z,320
2017-07-08T12:23:07.038Z,315
2017-07-08T12:24:07.019Z,320
2017-07-08T12:25:06.693Z,350
2017-07-08T12:26:07.351Z,345
2017-07-08T12:27:07.039Z,345
2017-07-08T12:28:07.050Z,325
2017-07-08T12:29:07.238Z,305
2017-07-08T12:30:07.368Z,290
2017-07-08T12:31:07.390Z,295
2017-07-08T12:32:06.718Z,290
2017-07-08T12:33:08.047Z,280
2017-07-08T12:34:07.063Z,270
2017-07-08T12:35:07.054Z,265
2017-07-08T12:36:07.437Z,260
2017-07-08T12:37:07.076Z,260
2017-07-08T12:38:07.396Z,260
2017-07-08T12:39:07.069Z,270
2017-07-08T12:40:07.085Z,275
2017-07-08T12:41:07.097Z,270
2017-07-08T12:42:07.099Z,260
2017-07-08T12:43:06.756Z,300
2017-07-08T12:44:06.776Z,370
2017-07-08T12:45:07.101Z,395
2017-07-08T12:46:06.765Z,390
2017-07-08T12:47:07.755Z,360
2017-07-08T12:48:07.760Z,355
2017-07-08T12:49:07.435Z,300
2017-07-08T12:50:07.770Z,270
2017-07-08T12:51:06.783Z,305
2017-07-08T12:52:07.444Z,315
2017-07-08T12:53:07.122Z,310
2017-07-08T12:54:07.122Z,370
2017-07-08T12:55:07.454Z,440
2017-07-08T12:56:07.461Z,440
2017-07-08T12:57:07.137Z,410
2017-07-08T12:58:07.468Z,375
2017-07-08T12:59:07.141Z,370
2017-07-08T13:00:06.814Z,310
2017-07-08T13:01:08.147Z,265
2017-07-08T13:02:07.497Z,275
2017-07-08T13:03:07.155Z,295
2017-07-08T13:04:06.833Z,305
2017-07-08T13:05:07.178Z,305
2017-07-08T13:06:07.826Z,280
2017-07-08T13:07:07.185Z,280
2017-07-08T13:08:07.172Z,300
2017-07-08T13:09:06.863Z,340
2017-07-08T13:10:07.854Z,385
2017-07-08T13:11:07.182Z,425
2017-07-08T13:12:07.188Z,455
2017-07-08T13:13:06.864Z,455
2017-07-08T13:14:07.197Z,465
2017-07-08T13:15:07.194Z,470
2017-07-08T13:16:06.873Z,445
2017-07-08T13:17:07.218Z,425
2017-07-08T13:18:07.552Z,450
2017-07-08T13:19:07.539Z,450
2017-07-08T13:20:07.548Z,435
2017-07-08T13:21:07.873Z,420
2017-07-08T13:22:06.898Z,430
2017-07-08T13:23:07.555Z,420
2017-07-08T13:24:07.231Z,430
2017-07-08T13:25:07.238Z,465
2017-07-08T13:26:07.587Z,455
2017-07-08T13:27:07.254Z,410
2017-07-08T13:28:07.247Z,395
2017-07-08T13:29:07.582Z,360
2017-07-08T13:30:06.946Z,340
2017-07-08T13:31:07.278Z,315
2017-07-08T13:32:07.265Z,310
2017-07-08T13:33:07.287Z,315
2017-07-08T13:34:07.940Z,330
2017-07-08T13:35:07.279Z,360
2017-07-08T13:36:06.983Z,350
2017-07-08T13:37:07.643Z,320
2017-07-08T13:38:07.950Z,290
2017-07-08T13:39:07.629Z,300
2017-07-08T13:40:07.953Z,325
2017-07-08T13:41:06.974Z,345
2017-07-08T13:42:07.309Z,325
2017-07-08T13:43:07.961Z,350
2017-07-08T13:44:07.692Z,380
2017-07-08T13:45:07.667Z,400
2017-07-08T13:46:07.341Z,405
2017-07-08T13:47:07.336Z,410
2017-07-08T13:48:07.330Z,435
2017-07-08T13:49:07.011Z,405
2017-07-08T13:50:07.339Z,395
2017-07-08T13:51:07.340Z,385
2017-07-08T13:52:07.678Z,415
2017-07-08T13:53:08.363Z,430
2017-07-08T13:54:07.359Z,400
2017-07-08T13:55:07.048Z,350
2017-07-08T13:56:07.700Z,350
2017-07-08T13:57:07.060Z,345
2017-07-08T13:58:07.373Z,325
2017-07-08T13:59:07.380Z,320
2017-07-08T14:00:08.041Z,345
2017-07-08T14:01:07.387Z,370
2017-07-08T14:02:07.398Z,410